Time;durP1;ratioP1;P1;durP2;ratioP2;P2;SDS_P1;SDS_P2;PMS_P1;PMS_P2;Temp;Humidity;BMP_temperature;BMP_pressure;BME280_temperature;BME280_humidity;BME280_pressure;Samples;Min_cycle;Max_cycle;Signal;HPM_P1;HPM_P2
2024/03/31 00:01:11;;;;;;;8.07;7.03;;;9.60;99.90;;;;;;4981453;28;20050;-73
2024/03/31 00:03:40;;;;;;;7.65;5.95;;;9.50;99.90;;;;;;5013430;28;20050;-73
2024/03/31 00:06:06;;;;;;;7.55;6.85;;;9.70;99.90;;;;;;5013941;28;20483;-73
2024/03/31 00:08:32;;;;;;;7.63;6.47;;;9.50;99.90;;;;;;5013371;28;20053;-73
2024/03/31 00:11:00;;;;;;;7.07;6.38;;;9.50;99.90;;;;;;4997384;28;20042;-73
2024/03/31 00:13:27;;;;;;;8.05;7.15;;;9.50;99.90;;;;;;4980780;28;20085;-73
2024/03/31 00:15:53;;;;;;;7.95;6.72;;;9.50;99.90;;;;;;4980970;28;20053;-73
2024/03/31 00:18:19;;;;;;;7.53;6.60;;;9.40;99.90;;;;;;5013428;28;20041;-73
2024/03/31 00:20:45;;;;;;;9.32;7.68;;;9.40;99.90;;;;;;5013164;28;20545;-73
2024/03/31 00:23:11;;;;;;;8.63;7.75;;;9.30;99.90;;;;;;4980861;28;20050;-72
2024/03/31 00:25:38;;;;;;;8.57;6.85;;;9.20;99.90;;;;;;5013137;28;20038;-73
2024/03/31 00:28:04;;;;;;;8.70;7.72;;;9.20;99.90;;;;;;4997156;28;20038;-73
2024/03/31 00:30:30;;;;;;;8.60;7.50;;;9.10;99.90;;;;;;5013062;28;20042;-73
2024/03/31 00:32:56;;;;;;;10.68;9.60;;;9.00;99.90;;;;;;4996972;28;20038;-73
2024/03/31 00:35:22;;;;;;;10.32;9.32;;;9.00;99.90;;;;;;5012941;28;20045;-73
2024/03/31 00:37:48;;;;;;;9.30;8.30;;;9.00;99.90;;;;;;4996621;28;20052;-73
2024/03/31 00:40:14;;;;;;;9.93;8.65;;;9.00;99.90;;;;;;4963607;28;20057;-72
2024/03/31 00:42:40;;;;;;;10.57;8.55;;;9.10;99.90;;;;;;4980250;28;20052;-73
2024/03/31 00:45:06;;;;;;;9.75;8.10;;;9.10;99.90;;;;;;4980439;28;20080;-73
2024/03/31 00:47:32;;;;;;;8.35;7.22;;;9.10;99.90;;;;;;4980014;28;20034;-73
2024/03/31 00:49:58;;;;;;;10.13;8.15;;;9.00;99.90;;;;;;4996366;28;20084;-73
2024/03/31 00:52:24;;;;;;;9.57;8.57;;;8.90;99.90;;;;;;5012822;28;20038;-73
2024/03/31 00:54:50;;;;;;;9.05;7.00;;;8.80;99.90;;;;;;4996317;28;20049;-73
2024/03/31 00:57:16;;;;;;;11.20;8.18;;;8.70;99.90;;;;;;4980246;28;20080;-72
2024/03/31 00:59:42;;;;;;;11.23;7.20;;;8.60;99.90;;;;;;4979973;28;20045;-72
2024/03/31 01:02:08;;;;;;;12.35;8.18;;;8.50;99.90;;;;;;4980121;28;20407;-73
2024/03/31 01:04:34;;;;;;;9.38;7.72;;;8.40;99.90;;;;;;4995960;28;20038;-72
2024/03/31 01:07:00;;;;;;;12.52;8.65;;;8.50;99.90;;;;;;4980254;28;20095;-72
2024/03/31 01:09:26;;;;;;;9.88;7.78;;;8.20;99.90;;;;;;5012568;28;20438;-73
2024/03/31 01:11:52;;;;;;;14.65;9.40;;;8.10;99.90;;;;;;4995900;28;20073;-72
2024/03/31 01:14:21;;;;;;;9.43;7.90;;;8.10;99.90;;;;;;4964519;28;20133;-72
2024/03/31 01:16:46;;;;;;;11.73;8.93;;;8.00;99.90;;;;;;5012136;28;20038;-73
2024/03/31 01:19:13;;;;;;;9.18;7.47;;;7.90;99.90;;;;;;5012252;28;20079;-72
2024/03/31 01:21:40;;;;;;;12.35;9.15;;;7.80;99.90;;;;;;4979290;28;20049;-73
2024/03/31 01:24:07;;;;;;;12.10;7.82;;;7.70;99.90;;;;;;4996070;28;20048;-73
2024/03/31 01:26:33;;;;;;;12.98;8.40;;;7.70;99.90;;;;;;4979612;28;20187;-73
2024/03/31 01:28:59;;;;;;;8.45;7.57;;;7.60;99.90;;;;;;4995537;28;20030;-73
2024/03/31 01:31:25;;;;;;;9.90;8.43;;;7.60;99.90;;;;;;4979596;28;20046;-72
2024/03/31 01:33:51;;;;;;;9.93;7.15;;;7.50;99.90;;;;;;4963501;28;20052;-73
2024/03/31 01:36:17;;;;;;;9.73;7.00;;;7.50;99.90;;;;;;4995791;28;20061;-72
2024/03/31 01:38:43;;;;;;;11.20;8.80;;;7.50;99.90;;;;;;4979260;28;20057;-73
2024/03/31 01:41:09;;;;;;;10.32;6.95;;;7.50;99.90;;;;;;4995655;28;20049;-72
2024/03/31 01:43:37;;;;;;;13.20;7.78;;;7.50;99.90;;;;;;4979466;28;20137;-72
2024/03/31 01:46:03;;;;;;;10.48;8.23;;;7.70;99.90;;;;;;5011993;28;20054;-73
2024/03/31 01:48:29;;;;;;;8.98;7.35;;;7.60;99.90;;;;;;4979291;28;20049;-72
2024/03/31 01:50:55;;;;;;;10.63;6.93;;;7.60;99.90;;;;;;4995280;28;20452;-72
2024/03/31 01:53:21;;;;;;;10.27;7.00;;;7.50;99.90;;;;;;5011787;28;20050;-72
2024/03/31 01:55:47;;;;;;;12.40;8.38;;;7.60;99.90;;;;;;5011512;28;20141;-73
2024/03/31 01:58:13;;;;;;;6.38;4.93;;;7.60;99.90;;;;;;5011660;28;20057;-72
2024/03/31 02:00:39;;;;;;;10.02;8.05;;;7.50;99.90;;;;;;4995025;28;20046;-73
2024/03/31 02:03:06;;;;;;;8.82;7.53;;;7.50;99.90;;;;;;5011478;28;20076;-73
2024/03/31 02:05:32;;;;;;;10.75;8.23;;;7.50;99.90;;;;;;4995339;28;20491;-73
2024/03/31 02:07:58;;;;;;;8.98;6.40;;;7.50;99.90;;;;;;5011298;28;20034;-72
2024/03/31 02:10:24;;;;;;;9.82;6.25;;;7.50;99.90;;;;;;4962940;28;20096;-73
2024/03/31 02:12:50;;;;;;;10.80;7.28;;;7.40;99.90;;;;;;5011540;28;20049;-73
2024/03/31 02:15:16;;;;;;;11.40;8.20;;;7.40;99.90;;;;;;4978989;28;20038;-72
2024/03/31 02:17:42;;;;;;;11.75;8.25;;;7.50;99.90;;;;;;5011174;28;20058;-73
2024/03/31 02:20:10;;;;;;;11.25;7.53;;;7.30;99.90;;;;;;4979131;28;20038;-73
2024/03/31 02:22:36;;;;;;;12.57;7.75;;;7.30;99.90;;;;;;5011804;28;20042;-72
2024/03/31 02:25:03;;;;;;;12.70;7.60;;;7.50;99.90;;;;;;5011213;28;20406;-72
2024/03/31 02:27:29;;;;;;;10.25;8.85;;;7.20;99.90;;;;;;4962926;28;20046;-72
2024/03/31 02:29:55;;;;;;;10.27;7.10;;;7.20;99.90;;;;;;5011193;28;20402;-73
2024/03/31 02:32:21;;;;;;;10.60;8.23;;;7.10;99.90;;;;;;4978661;28;20046;-73
2024/03/31 02:34:47;;;;;;;9.75;8.63;;;7.20;99.90;;;;;;4962462;28;20069;-73
2024/03/31 02:37:16;;;;;;;13.23;8.02;;;7.00;99.90;;;;;;4979373;28;20192;-73
2024/03/31 02:39:42;;;;;;;14.10;10.65;;;7.00;99.90;;;;;;4978732;28;20042;-72
2024/03/31 02:42:09;;;;;;;9.90;7.40;;;7.10;99.90;;;;;;5010961;28;20087;-72
2024/03/31 02:44:36;;;;;;;13.25;8.45;;;7.00;99.90;;;;;;4979117;28;20553;-72
2024/03/31 02:47:03;;;;;;;10.02;7.28;;;7.00;99.90;;;;;;4978420;28;20042;-72
2024/03/31 02:49:29;;;;;;;12.88;8.65;;;7.00;99.90;;;;;;5011197;28;20050;-72
2024/03/31 02:51:56;;;;;;;10.60;7.97;;;7.00;99.90;;;;;;4978528;28;20049;-73
2024/03/31 02:54:22;;;;;;;9.82;7.97;;;7.00;99.90;;;;;;4978647;28;20048;-72
2024/03/31 02:56:48;;;;;;;12.05;9.77;;;7.10;99.90;;;;;;5011039;28;20066;-72
2024/03/31 02:59:14;;;;;;;12.20;8.38;;;7.00;99.90;;;;;;5011141;28;20459;-72
2024/03/31 03:01:40;;;;;;;12.07;9.25;;;7.10;99.90;;;;;;5011251;28;20042;-72
2024/03/31 03:04:06;;;;;;;11.43;7.95;;;7.20;99.90;;;;;;4982115;28;20076;-73
2024/03/31 03:06:32;;;;;;;11.07;9.18;;;7.20;99.90;;;;;;4982296;28;20046;-72
2024/03/31 03:08:58;;;;;;;10.70;7.78;;;7.00;99.90;;;;;;4998296;28;20065;-72
2024/03/31 03:11:25;;;;;;;12.48;8.10;;;7.00;99.90;;;;;;4982022;28;20050;-72
2024/03/31 03:13:51;;;;;;;11.93;10.27;;;7.00;99.90;;;;;;4982146;28;20491;-73
2024/03/31 03:16:19;;;;;;;11.63;8.48;;;6.90;99.90;;;;;;4998259;28;20072;-72
2024/03/31 03:18:45;;;;;;;10.43;9.32;;;7.00;99.90;;;;;;4998374;28;20070;-73
2024/03/31 03:21:11;;;;;;;13.60;8.07;;;6.80;99.90;;;;;;4965807;28;20065;-73
2024/03/31 03:23:37;;;;;;;10.88;8.05;;;6.80;99.90;;;;;;4998061;28;20041;-73
2024/03/31 03:26:04;;;;;;;9.98;7.22;;;6.70;99.90;;;;;;4981861;28;20053;-72
2024/03/31 03:28:31;;;;;;;15.23;10.75;;;6.70;99.90;;;;;;5014282;28;20557;-72
2024/03/31 03:31:00;;;;;;;8.82;7.50;;;6.60;99.90;;;;;;4997716;28;20038;-72
2024/03/31 03:33:27;;;;;;;10.43;8.52;;;6.60;99.90;;;;;;4998275;28;20042;-72
2024/03/31 03:35:56;;;;;;;10.95;7.97;;;6.60;99.90;;;;;;4982157;28;20057;-73
2024/03/31 03:38:22;;;;;;;14.95;9.20;;;6.50;99.90;;;;;;4981842;28;20123;-72
2024/03/31 03:40:52;;;;;;;12.98;7.68;;;6.50;99.90;;;;;;4998215;28;20495;-73
2024/03/31 03:43:19;;;;;;;14.95;12.18;;;6.50;99.90;;;;;;4997899;28;20073;-72
2024/03/31 03:45:50;;;;;;;11.57;7.70;;;6.50;99.90;;;;;;4998517;28;20053;-73
2024/03/31 03:48:17;;;;;;;12.07;9.38;;;6.60;99.90;;;;;;5013811;28;20092;-72
2024/03/31 03:50:43;;;;;;;12.48;7.65;;;6.60;99.90;;;;;;5013840;28;20092;-72
2024/03/31 03:53:09;;;;;;;12.48;9.35;;;6.60;99.90;;;;;;5013687;28;20054;-72
2024/03/31 03:55:35;;;;;;;12.02;8.77;;;6.60;99.90;;;;;;5013811;28;20100;-73
2024/03/31 03:58:01;;;;;;;10.50;8.07;;;6.60;99.90;;;;;;5013608;28;20065;-72
2024/03/31 04:00:27;;;;;;;13.07;9.93;;;6.60;99.90;;;;;;4994937;28;20057;-72
2024/03/31 04:02:53;;;;;;;17.05;10.20;;;6.70;99.90;;;;;;4979112;28;20042;-72
2024/03/31 04:05:19;;;;;;;13.82;11.30;;;6.70;99.90;;;;;;5005417;28;20125;-72
2024/03/31 04:07:47;;;;;;;14.40;11.68;;;6.70;99.90;;;;;;5013310;28;20129;-72
2024/03/31 04:10:14;;;;;;;11.98;9.57;;;6.80;99.90;;;;;;5013338;28;20052;-72
2024/03/31 04:12:40;;;;;;;12.20;8.77;;;6.90;99.90;;;;;;4980890;28;20048;-72
2024/03/31 04:15:06;;;;;;;12.73;9.18;;;6.90;99.90;;;;;;5013377;28;20046;-72
2024/03/31 04:17:34;;;;;;;11.88;8.38;;;7.00;99.90;;;;;;4997074;28;20045;-72
2024/03/31 04:20:01;;;;;;;15.27;9.98;;;7.10;99.90;;;;;;4981232;28;20046;-73
2024/03/31 04:22:27;;;;;;;11.30;8.90;;;7.10;99.90;;;;;;5013466;28;20054;-72
2024/03/31 04:24:54;;;;;;;10.55;8.52;;;7.20;99.90;;;;;;4980982;28;20058;-72
2024/03/31 04:27:20;;;;;;;11.00;8.35;;;7.20;99.90;;;;;;4996711;28;20057;-73
2024/03/31 04:29:46;;;;;;;12.27;9.02;;;7.30;99.90;;;;;;5013006;28;20042;-72
2024/03/31 04:32:12;;;;;;;11.05;8.80;;;7.30;99.90;;;;;;4996555;28;20061;-73
2024/03/31 04:34:38;;;;;;;14.80;9.95;;;7.50;99.90;;;;;;5013037;28;20491;-73
2024/03/31 04:37:05;;;;;;;12.93;9.35;;;7.40;99.90;;;;;;4996659;28;20046;-73
2024/03/31 04:39:31;;;;;;;12.23;9.63;;;7.50;99.90;;;;;;5012962;28;20068;-73
2024/03/31 04:41:57;;;;;;;12.25;9.75;;;7.50;99.90;;;;;;4996761;28;20038;-73
2024/03/31 04:44:24;;;;;;;12.82;9.43;;;7.50;99.90;;;;;;4996429;28;20077;-73
2024/03/31 04:46:50;;;;;;;12.02;9.48;;;7.60;99.90;;;;;;4980451;28;20046;-72
2024/03/31 04:49:18;;;;;;;10.75;7.88;;;7.60;99.90;;;;;;5012915;28;20042;-73
2024/03/31 04:51:50;;;;;;;12.73;8.63;;;7.60;99.90;;;;;;4996757;28;20045;-72
2024/03/31 04:54:20;;;;;;;10.75;7.78;;;7.60;99.90;;;;;;5013228;28;20041;-73
2024/03/31 04:56:47;;;;;;;11.00;9.25;;;7.90;99.90;;;;;;4996337;28;20065;-72
2024/03/31 04:59:16;;;;;;;10.25;8.80;;;7.70;99.90;;;;;;5012837;28;20108;-72
2024/03/31 05:01:43;;;;;;;12.30;8.82;;;7.70;99.90;;;;;;4989747;28;20052;-73
2024/03/31 05:04:10;;;;;;;12.52;8.57;;;7.70;99.90;;;;;;4995911;28;20575;-73
2024/03/31 05:06:36;;;;;;;11.77;8.80;;;7.80;99.90;;;;;;4979013;28;20046;-72
2024/03/31 05:09:03;;;;;;;11.65;7.22;;;7.80;99.90;;;;;;5012402;28;20038;-73
2024/03/31 05:11:31;;;;;;;11.13;9.55;;;7.80;99.90;;;;;;4996270;28;20034;-73
2024/03/31 05:13:58;;;;;;;11.52;9.93;;;7.80;99.90;;;;;;4980094;28;20034;-73
2024/03/31 05:16:25;;;;;;;11.57;8.70;;;7.90;99.90;;;;;;5012196;28;20049;-73
2024/03/31 05:18:51;;;;;;;13.35;9.63;;;7.80;99.90;;;;;;5012347;28;20038;-72
2024/03/31 05:21:18;;;;;;;11.07;9.95;;;7.80;99.90;;;;;;4979824;28;20053;-72
2024/03/31 05:23:46;;;;;;;15.35;11.32;;;7.90;99.90;;;;;;4995860;28;20045;-73
2024/03/31 05:26:17;;;;;;;11.68;9.00;;;7.80;99.90;;;;;;4995876;28;20050;-72
2024/03/31 05:28:46;;;;;;;14.88;11.40;;;7.80;99.90;;;;;;4996038;28;20069;-73
2024/03/31 05:31:12;;;;;;;12.88;10.65;;;7.70;99.90;;;;;;5011944;28;20057;-72
2024/03/31 05:33:51;;;;;;;15.30;10.93;;;7.70;99.90;;;;;;4983066;28;20553;-73
2024/03/31 05:36:17;;;;;;;13.35;10.88;;;7.60;99.90;;;;;;5011662;28;20045;-72
2024/03/31 05:38:43;;;;;;;12.98;10.25;;;7.60;99.90;;;;;;4979569;28;20050;-73
2024/03/31 05:41:14;;;;;;;13.20;10.23;;;7.60;99.90;;;;;;5011865;28;20104;-73
2024/03/31 05:43:40;;;;;;;13.57;10.50;;;7.60;99.90;;;;;;4979455;28;20050;-72
2024/03/31 05:46:07;;;;;;;15.10;10.35;;;7.70;99.90;;;;;;5011890;28;20037;-73
2024/03/31 05:48:33;;;;;;;14.02;10.10;;;7.70;99.90;;;;;;4978956;28;20042;-73
2024/03/31 05:50:59;;;;;;;14.02;10.07;;;7.70;99.90;;;;;;4995467;28;20060;-73
2024/03/31 05:53:28;;;;;;;14.95;10.55;;;7.80;99.90;;;;;;5011506;28;20084;-73
2024/03/31 05:55:54;;;;;;;16.17;13.48;;;7.90;99.90;;;;;;4979401;28;20038;-73
2024/03/31 05:58:20;;;;;;;16.02;12.57;;;7.90;99.90;;;;;;4995405;28;20060;-72
2024/03/31 06:00:47;;;;;;;18.02;13.25;;;8.00;99.90;;;;;;5011491;28;20046;-73
2024/03/31 06:03:14;;;;;;;16.50;13.45;;;8.10;99.90;;;;;;4977092;28;20049;-72
2024/03/31 06:05:40;;;;;;;19.42;15.15;;;8.10;99.90;;;;;;5011272;28;20693;-73
2024/03/31 06:08:07;;;;;;;21.60;13.98;;;8.20;99.90;;;;;;5011520;28;20042;-73
2024/03/31 06:10:35;;;;;;;19.35;14.35;;;8.30;99.90;;;;;;5011357;28;20041;-73
2024/03/31 06:13:02;;;;;;;18.73;15.48;;;8.30;99.90;;;;;;4979606;28;20049;-73
2024/03/31 06:15:28;;;;;;;22.83;16.95;;;8.30;99.90;;;;;;4994880;28;20050;-72
2024/03/31 06:17:54;;;;;;;20.55;16.15;;;8.40;99.90;;;;;;5027865;28;20088;-73
2024/03/31 06:20:20;;;;;;;21.17;15.85;;;8.50;99.90;;;;;;4994939;28;20049;-72
2024/03/31 06:22:48;;;;;;;18.60;16.23;;;8.50;99.90;;;;;;4979095;28;20042;-72
2024/03/31 06:25:14;;;;;;;20.40;14.90;;;8.60;99.90;;;;;;4994933;28;20133;-73
2024/03/31 06:27:41;;;;;;;23.58;15.57;;;8.60;99.90;;;;;;4994923;28;20050;-73
2024/03/31 06:30:07;;;;;;;19.63;17.00;;;8.70;99.90;;;;;;4994984;28;20046;-72
2024/03/31 06:32:33;;;;;;;23.20;17.25;;;8.70;99.90;;;;;;4994711;28;20076;-72
2024/03/31 06:35:00;;;;;;;19.67;15.55;;;8.70;99.90;;;;;;4995024;28;20092;-73
2024/03/31 06:37:26;;;;;;;20.80;16.50;;;8.70;99.90;;;;;;4995724;28;20054;-73
2024/03/31 06:39:52;;;;;;;24.38;18.23;;;8.70;99.90;;;;;;4998853;28;20046;-72
2024/03/31 06:42:19;;;;;;;22.95;18.98;;;8.80;99.90;;;;;;4998600;28;20041;-72
2024/03/31 06:44:50;;;;;;;18.33;15.93;;;8.80;99.90;;;;;;4999302;28;20132;-72
2024/03/31 06:47:16;;;;;;;20.10;15.52;;;8.80;99.90;;;;;;4998792;28;20068;-73
2024/03/31 06:49:42;;;;;;;23.63;19.20;;;8.90;99.90;;;;;;4998362;28;20137;-72
2024/03/31 06:52:08;;;;;;;23.65;18.15;;;8.90;99.90;;;;;;5015031;28;20034;-72
2024/03/31 06:54:34;;;;;;;22.00;17.55;;;9.00;99.90;;;;;;5014736;28;20056;-73
2024/03/31 06:57:04;;;;;;;22.42;17.48;;;9.00;99.90;;;;;;4998766;28;20046;-72
2024/03/31 06:59:30;;;;;;;25.75;18.55;;;9.10;99.90;;;;;;4998373;28;20563;-72
2024/03/31 07:01:56;;;;;;;24.98;18.95;;;9.10;99.90;;;;;;4998524;28;20107;-72
2024/03/31 07:04:23;;;;;;;22.83;18.58;;;9.10;99.90;;;;;;4998159;28;20495;-73
2024/03/31 07:06:49;;;;;;;27.83;18.75;;;9.20;99.90;;;;;;5014688;28;20077;-72
2024/03/31 07:09:17;;;;;;;25.77;18.95;;;9.20;99.90;;;;;;5014489;28;20141;-72
2024/03/31 07:11:43;;;;;;;24.55;19.42;;;9.20;99.90;;;;;;4998005;28;20069;-73
2024/03/31 07:14:11;;;;;;;25.48;18.80;;;9.20;99.90;;;;;;4998394;28;20380;-73
2024/03/31 07:16:38;;;;;;;26.38;18.75;;;9.30;99.90;;;;;;5014263;28;20136;-73
2024/03/31 07:19:04;;;;;;;22.38;17.60;;;9.30;99.90;;;;;;4998206;28;20041;-73
2024/03/31 07:21:32;;;;;;;28.23;21.20;;;9.30;99.90;;;;;;5014219;28;20057;-73
2024/03/31 07:23:58;;;;;;;27.48;18.88;;;9.30;99.90;;;;;;4998155;28;20450;-73
2024/03/31 07:26:26;;;;;;;24.15;19.60;;;9.30;99.90;;;;;;4997704;28;20045;-72
2024/03/31 07:28:54;;;;;;;27.33;20.25;;;9.40;99.90;;;;;;4981768;28;20053;-73
2024/03/31 07:31:21;;;;;;;24.85;20.17;;;9.40;99.90;;;;;;5014031;28;20042;-73
2024/03/31 07:33:48;;;;;;;27.08;20.65;;;9.40;99.90;;;;;;4981750;28;20553;-72
2024/03/31 07:36:14;;;;;;;24.30;20.30;;;9.40;99.90;;;;;;4981393;28;20517;-72
2024/03/31 07:38:40;;;;;;;28.75;23.20;;;9.50;99.90;;;;;;4980233;28;20046;-73
2024/03/31 07:41:06;;;;;;;24.55;20.48;;;9.70;99.90;;;;;;5029420;28;20048;-73
2024/03/31 07:43:32;;;;;;;29.77;21.02;;;9.50;99.90;;;;;;5012875;28;20049;-72
2024/03/31 07:45:58;;;;;;;25.33;21.90;;;9.50;99.90;;;;;;5029385;28;20037;-72
2024/03/31 07:48:24;;;;;;;30.63;21.70;;;9.50;99.90;;;;;;5028914;28;20080;-72
2024/03/31 07:50:50;;;;;;;26.98;23.90;;;9.50;99.90;;;;;;4980192;28;20042;-72
2024/03/31 07:53:16;;;;;;;28.80;23.15;;;9.50;99.90;;;;;;5013014;28;20089;-73
2024/03/31 07:55:42;;;;;;;29.65;20.42;;;9.50;99.90;;;;;;5012396;28;20037;-73
2024/03/31 07:58:08;;;;;;;26.63;21.25;;;9.60;99.90;;;;;;5029141;28;20073;-73
2024/03/31 08:00:34;;;;;;;27.35;20.65;;;9.60;99.90;;;;;;4996247;28;20038;-73
2024/03/31 08:03:00;;;;;;;25.55;19.30;;;9.70;99.90;;;;;;4996168;28;20050;-73
2024/03/31 08:05:27;;;;;;;27.42;21.42;;;9.70;99.90;;;;;;4980022;28;20049;-72
2024/03/31 08:07:53;;;;;;;27.67;20.63;;;9.80;99.90;;;;;;5012238;28;20046;-73
2024/03/31 08:10:19;;;;;;;26.60;19.98;;;9.90;99.90;;;;;;5028921;28;20046;-73
2024/03/31 08:12:45;;;;;;;24.88;22.23;;;9.80;99.90;;;;;;4979737;28;20092;-73
2024/03/31 08:15:11;;;;;;;25.55;19.80;;;9.90;99.90;;;;;;5012451;28;20053;-73
2024/03/31 08:17:37;;;;;;;25.88;19.52;;;9.90;99.90;;;;;;5028912;28;20030;-73
2024/03/31 08:20:03;;;;;;;31.90;21.17;;;9.90;99.90;;;;;;4996131;28;20057;-73
2024/03/31 08:22:29;;;;;;;24.65;19.77;;;10.00;99.90;;;;;;4996060;28;20041;-73
2024/03/31 08:24:56;;;;;;;21.80;19.13;;;10.10;99.90;;;;;;5012200;28;20455;-73
2024/03/31 08:27:21;;;;;;;24.83;19.05;;;10.20;99.90;;;;;;4995934;28;20061;-73
2024/03/31 08:29:48;;;;;;;23.40;17.20;;;10.40;99.90;;;;;;4979392;28;20050;-73
2024/03/31 08:32:14;;;;;;;23.83;19.05;;;10.70;99.90;;;;;;4995853;28;20054;-73
2024/03/31 08:34:40;;;;;;;23.23;19.77;;;10.80;99.90;;;;;;4995503;28;20140;-74
2024/03/31 08:37:06;;;;;;;26.23;20.97;;;11.10;99.90;;;;;;4957319;28;1130002;-73
2024/03/31 08:39:32;;;;;;;22.17;19.73;;;11.20;99.90;;;;;;5029564;28;20460;-73
2024/03/31 08:42:07;;;;;;;23.20;19.05;;;11.30;99.90;;;;;;5029748;28;20057;-73
2024/03/31 08:44:33;;;;;;;20.27;18.13;;;11.40;99.90;;;;;;4996396;28;20049;-73
2024/03/31 08:47:00;;;;;;;20.15;16.92;;;11.50;99.90;;;;;;4996531;28;20056;-73
2024/03/31 08:49:26;;;;;;;22.23;19.92;;;11.60;99.90;;;;;;4996483;28;20499;-73
2024/03/31 08:51:52;;;;;;;20.45;16.75;;;11.70;99.90;;;;;;5012566;28;20038;-73
2024/03/31 08:54:18;;;;;;;20.77;17.60;;;11.90;99.90;;;;;;5029205;28;20049;-73
2024/03/31 08:56:44;;;;;;;20.98;16.48;;;12.20;99.90;;;;;;4996267;28;20038;-73
2024/03/31 08:59:11;;;;;;;18.85;15.32;;;12.50;99.90;;;;;;5012705;28;20048;-73
2024/03/31 09:01:37;;;;;;;18.00;14.85;;;12.70;99.90;;;;;;5011674;28;20057;-73
2024/03/31 09:04:03;;;;;;;16.63;14.93;;;12.80;99.90;;;;;;4979967;28;20376;-73
2024/03/31 09:06:30;;;;;;;19.75;15.63;;;12.90;99.90;;;;;;4979971;28;20065;-74
2024/03/31 09:09:00;;;;;;;19.50;15.32;;;12.90;99.90;;;;;;5012162;28;20483;-73
2024/03/31 09:11:29;;;;;;;15.70;14.02;;;13.00;99.90;;;;;;5012371;28;20042;-73
2024/03/31 09:13:56;;;;;;;15.73;12.52;;;13.50;99.90;;;;;;4979600;28;20100;-73
2024/03/31 09:16:23;;;;;;;15.75;14.18;;;14.10;99.90;;;;;;5012367;28;20491;-73
2024/03/31 09:18:49;;;;;;;13.40;12.10;;;14.90;99.90;;;;;;4995660;28;20050;-73
2024/03/31 09:21:15;;;;;;;15.52;13.02;;;15.30;98.80;;;;;;5012557;28;20042;-73
2024/03/31 09:23:41;;;;;;;13.27;11.82;;;15.40;97.40;;;;;;5012011;28;20112;-73
2024/03/31 09:26:08;;;;;;;12.40;11.20;;;15.40;97.10;;;;;;5012090;28;20071;-73
2024/03/31 09:28:36;;;;;;;12.85;11.52;;;15.50;97.10;;;;;;5012158;28;20395;-73
2024/03/31 09:31:03;;;;;;;12.88;11.48;;;15.70;96.50;;;;;;4995652;28;20057;-73
2024/03/31 09:33:34;;;;;;;13.52;12.07;;;16.00;96.20;;;;;;5028509;28;20034;-73
2024/03/31 09:36:01;;;;;;;13.88;12.18;;;16.40;95.70;;;;;;5028150;28;20057;-73
2024/03/31 09:38:28;;;;;;;12.85;11.65;;;16.30;94.60;;;;;;5012302;28;20038;-73
2024/03/31 09:40:54;;;;;;;14.35;12.32;;;15.90;94.20;;;;;;4979251;28;20046;-73
2024/03/31 09:43:21;;;;;;;17.48;12.73;;;15.50;94.30;;;;;;5011636;28;20060;-73
2024/03/31 09:45:47;;;;;;;14.75;12.65;;;14.90;94.60;;;;;;5011531;28;20057;-73
2024/03/31 09:48:19;;;;;;;17.75;13.07;;;14.40;95.10;;;;;;5026323;28;20030;-73
2024/03/31 09:50:56;;;;;;;14.60;12.52;;;14.00;95.60;;;;;;5009022;28;20040;-72
2024/03/31 09:53:25;;;;;;;;;;;13.80;96.10;;;;;;5032396;28;20037;-72
2024/03/31 09:55:59;;;;;;;14.25;12.75;;;13.70;96.40;;;;;;5031605;28;19921;-72
2024/03/31 09:58:32;;;;;;;14.13;12.00;;;13.90;96.70;;;;;;5015007;28;20045;-73
2024/03/31 10:01:00;;;;;;;15.75;13.48;;;14.00;96.40;;;;;;5031166;28;20045;-73
2024/03/31 10:03:31;;;;;;;17.17;14.00;;;13.90;96.40;;;;;;5031388;28;20537;-73
2024/03/31 10:05:58;;;;;;;12.48;10.95;;;13.80;96.40;;;;;;5014736;28;20049;-73
2024/03/31 10:08:29;;;;;;;13.05;11.18;;;13.70;96.40;;;;;;5014877;28;20398;-73
2024/03/31 10:10:57;;;;;;;15.30;13.20;;;13.50;96.70;;;;;;5014486;28;20052;-73
2024/03/31 10:13:26;;;;;;;15.43;11.93;;;13.40;96.90;;;;;;5031373;28;20041;-73
2024/03/31 10:15:55;;;;;;;16.33;13.68;;;13.20;97.20;;;;;;5031058;28;20038;-73
2024/03/31 10:18:24;;;;;;;13.80;11.85;;;13.20;97.40;;;;;;5014904;28;20052;-73
2024/03/31 10:20:51;;;;;;;16.50;14.85;;;13.20;97.50;;;;;;5014297;28;20453;-73
2024/03/31 10:23:20;;;;;;;19.58;15.75;;;13.30;97.50;;;;;;5031329;28;20051;-73
2024/03/31 10:25:47;;;;;;;16.30;14.60;;;13.40;97.50;;;;;;5030987;28;20406;-73
2024/03/31 10:28:17;;;;;;;17.42;14.40;;;13.50;97.50;;;;;;5030946;28;20045;-73
2024/03/31 10:30:44;;;;;;;18.67;14.65;;;13.70;97.30;;;;;;5014622;28;20037;-73
2024/03/31 10:33:10;;;;;;;18.33;16.38;;;14.00;97.20;;;;;;5030926;28;20052;-76
2024/03/31 10:35:40;;;;;;;16.65;14.40;;;14.30;96.90;;;;;;5031176;28;20037;-76
2024/03/31 10:38:10;;;;;;;16.38;14.68;;;14.60;96.50;;;;;;5014448;28;20041;-76
2024/03/31 10:40:37;;;;;;;16.70;14.55;;;14.90;96.00;;;;;;5014628;28;20037;-77
2024/03/31 10:43:05;;;;;;;16.83;13.82;;;15.00;96.00;;;;;;5014402;28;20045;-76
2024/03/31 10:45:32;;;;;;;18.45;14.77;;;15.20;95.60;;;;;;5031154;28;20042;-77
2024/03/31 10:47:58;;;;;;;17.10;15.38;;;15.20;95.40;;;;;;5014260;28;20041;-77
2024/03/31 10:50:25;;;;;;;16.80;13.15;;;15.30;95.10;;;;;;5031149;28;20045;-76
2024/03/31 10:52:52;;;;;;;14.38;12.57;;;15.50;94.90;;;;;;5030766;28;20037;-76
2024/03/31 10:55:20;;;;;;;16.77;14.95;;;15.70;94.60;;;;;;5014814;28;20037;-77
2024/03/31 10:57:59;;;;;;;20.83;15.02;;;15.60;94.40;;;;;;5014620;28;20041;-76
2024/03/31 11:00:26;;;;;;;14.68;12.25;;;15.50;94.90;;;;;;5030760;28;20041;-77
2024/03/31 11:02:53;;;;;;;19.95;16.60;;;15.60;94.80;;;;;;5030765;28;20053;-76
2024/03/31 11:05:20;;;;;;;19.80;16.48;;;15.70;95.00;;;;;;4998129;28;20041;-76
2024/03/31 11:07:48;;;;;;;16.63;14.68;;;15.80;94.90;;;;;;5014352;28;20487;-76
2024/03/31 11:10:15;;;;;;;17.27;15.13;;;15.70;94.70;;;;;;4997890;28;20053;-77
2024/03/31 11:12:45;;;;;;;18.52;14.30;;;15.50;94.60;;;;;;5030928;28;20033;-76
2024/03/31 11:15:13;;;;;;;16.98;13.70;;;15.40;94.90;;;;;;5014252;28;20402;-76
2024/03/31 11:17:40;;;;;;;15.18;9.63;;;15.30;95.10;;;;;;5014531;28;20033;-76
2024/03/31 11:20:08;;;;;;;17.85;13.30;;;15.40;94.70;;;;;;5013948;28;20033;-76
2024/03/31 11:22:36;;;;;;;15.68;12.68;;;15.30;94.70;;;;;;5014148;28;20042;-77
2024/03/31 11:25:04;;;;;;;11.38;9.20;;;15.60;94.90;;;;;;5033985;28;20099;-76
2024/03/31 11:27:32;;;;;;;16.17;13.82;;;15.80;93.70;;;;;;5017986;28;20053;-76
2024/03/31 11:30:00;;;;;;;16.15;12.82;;;15.80;94.20;;;;;;5034305;28;20478;-76
2024/03/31 11:32:26;;;;;;;18.35;12.45;;;15.90;94.20;;;;;;5034364;28;20052;-76
2024/03/31 11:34:53;;;;;;;15.38;12.80;;;16.00;94.20;;;;;;5017678;28;20042;-77
2024/03/31 11:37:20;;;;;;;16.80;13.55;;;16.40;94.10;;;;;;5001250;28;20053;-77
2024/03/31 11:39:46;;;;;;;14.80;13.05;;;16.70;93.50;;;;;;5034008;28;20041;-76
2024/03/31 11:42:13;;;;;;;16.08;13.00;;;17.00;93.40;;;;;;5001044;28;20057;-77
2024/03/31 11:44:40;;;;;;;18.40;14.50;;;17.30;92.90;;;;;;5034003;28;20422;-76
2024/03/31 11:47:07;;;;;;;16.98;13.95;;;17.30;92.70;;;;;;5033616;28;20091;-77
2024/03/31 11:49:34;;;;;;;18.35;13.93;;;17.20;92.20;;;;;;5017225;28;20503;-77
2024/03/31 11:52:01;;;;;;;13.40;12.05;;;17.20;92.40;;;;;;5017062;28;20566;-77
2024/03/31 11:54:30;;;;;;;17.13;13.73;;;17.20;91.90;;;;;;5017583;28;20041;-77
2024/03/31 11:56:56;;;;;;;15.43;13.75;;;17.30;92.20;;;;;;5033748;28;20048;-77
2024/03/31 11:59:22;;;;;;;18.27;15.05;;;17.30;92.00;;;;;;5033657;28;20513;-76
2024/03/31 12:01:59;;;;;;;17.00;14.00;;;17.20;92.20;;;;;;5033741;28;20397;-76
2024/03/31 12:04:29;;;;;;;18.20;15.07;;;17.00;92.00;;;;;;5001089;28;20049;-76
2024/03/31 12:06:56;;;;;;;16.13;14.35;;;16.80;92.00;;;;;;5033675;28;20045;-76
2024/03/31 12:09:26;;;;;;;15.15;12.57;;;17.00;92.10;;;;;;5016892;28;20438;-77
2024/03/31 12:11:52;;;;;;;18.65;15.27;;;17.70;91.70;;;;;;5017006;28;20628;-77
2024/03/31 12:14:18;;;;;;;19.95;15.32;;;18.60;91.50;;;;;;5033381;28;20041;-77
2024/03/31 12:16:45;;;;;;;20.55;17.45;;;19.50;90.60;;;;;;5016918;28;20034;-77
2024/03/31 12:19:12;;;;;;;19.45;17.30;;;19.90;89.30;;;;;;5016598;28;20450;-77
2024/03/31 12:21:38;;;;;;;17.33;12.02;;;20.10;88.50;;;;;;5016864;28;20064;-77
2024/03/31 12:24:06;;;;;;;18.10;13.20;;;20.30;86.70;;;;;;5000276;28;20395;-77
2024/03/31 12:26:33;;;;;;;16.73;15.05;;;20.30;87.00;;;;;;5016598;28;20053;-77
2024/03/31 12:28:59;;;;;;;20.15;15.82;;;20.40;85.10;;;;;;5033306;28;20501;-77
2024/03/31 12:31:26;;;;;;;18.15;14.10;;;20.70;85.40;;;;;;5016553;28;20487;-77
2024/03/31 12:33:53;;;;;;;18.02;15.50;;;20.60;85.10;;;;;;5016509;28;20045;-77
2024/03/31 12:36:20;;;;;;;20.40;14.98;;;20.40;83.60;;;;;;5031764;28;20045;-77